sensor_id;sensor_type;location;lat;lon;timestamp;pressure;altitude;pressure_sealevel;temperature;humidity
11712;BME280;5912;51.034;6.984;2022-12-05T11:24:36;100367.84;;;1.51;99.78
11712;BME280;5912;51.034;6.984;2022-12-05T11:29:40;100380.41;;;1.46;100.00
11712;BME280;5912;51.034;6.984;2022-12-05T11:32:20;100371.34;;;1.42;99.79
11712;BME280;5912;51.034;6.984;2022-12-05T11:37:22;100362.22;;;1.38;100.00
11712;BME280;5912;51.034;6.984;2022-12-05T11:39:50;100367.78;;;1.43;99.54
11712;BME280;5912;51.034;6.984;2022-12-05T11:45:08;100371.03;;;1.45;99.61
11712;BME280;5912;51.034;6.984;2022-12-05T11:50:44;100363.88;;;1.39;100.00
11712;BME280;5912;51.034;6.984;2022-12-05T11:56:34;100374.59;;;1.44;100.00
11712;BME280;5912;51.034;6.984;2022-12-05T12:09:57;100364.41;;;1.69;100.00
11712;BME280;5912;51.034;6.984;2022-12-05T12:15:37;100369.47;;;1.78;100.00
11712;BME280;5912;51.034;6.984;2022-12-05T12:28:41;100354.84;;;1.69;99.64
11712;BME280;5912;51.034;6.984;2022-12-05T12:33:57;100359.13;;;1.78;99.95
11712;BME280;5912;51.034;6.984;2022-12-05T12:39:08;100363.78;;;1.75;99.49
11712;BME280;5912;51.034;6.984;2022-12-05T12:44:24;100364.13;;;1.80;99.19
11712;BME280;5912;51.034;6.984;2022-12-05T12:47:05;100357.47;;;1.77;99.91
11712;BME280;5912;51.034;6.984;2022-12-05T12:52:14;100365.75;;;1.81;99.92
11712;BME280;5912;51.034;6.984;2022-12-05T12:57:17;100359.59;;;1.82;99.78
11712;BME280;5912;51.034;6.984;2022-12-05T13:02:41;100351.16;;;1.72;98.32
11712;BME280;5912;51.034;6.984;2022-12-05T13:05:22;100363.47;;;1.78;98.40
11712;BME280;5912;51.034;6.984;2022-12-05T13:08:19;100357.66;;;1.84;99.32
11712;BME280;5912;51.034;6.984;2022-12-05T13:10:47;100354.94;;;1.85;98.73
11712;BME280;5912;51.034;6.984;2022-12-05T13:13:26;100362.81;;;1.76;97.98
11712;BME280;5912;51.034;6.984;2022-12-05T13:15:55;100351.56;;;1.67;98.12
11712;BME280;5912;51.034;6.984;2022-12-05T13:18:24;100363.88;;;1.65;99.18
11712;BME280;5912;51.034;6.984;2022-12-05T13:20:56;100361.44;;;1.64;98.90
11712;BME280;5912;51.034;6.984;2022-12-05T13:23:24;100358.03;;;1.63;98.88
11712;BME280;5912;51.034;6.984;2022-12-05T13:25:53;100353.31;;;1.59;98.65
11712;BME280;5912;51.034;6.984;2022-12-05T13:28:35;100356.53;;;1.52;98.52
11712;BME280;5912;51.034;6.984;2022-12-05T13:31:07;100361.34;;;1.47;99.25
11712;BME280;5912;51.034;6.984;2022-12-05T13:33:45;100357.25;;;1.45;98.48
11712;BME280;5912;51.034;6.984;2022-12-05T13:36:12;100366.97;;;1.43;98.90
11712;BME280;5912;51.034;6.984;2022-12-05T13:39:06;100360.38;;;1.48;99.38
11712;BME280;5912;51.034;6.984;2022-12-05T13:41:58;100362.97;;;1.48;100.00
11712;BME280;5912;51.034;6.984;2022-12-05T13:44:40;100368.13;;;1.48;99.32
11712;BME280;5912;51.034;6.984;2022-12-05T13:49:55;100355.53;;;1.28;99.71
11712;BME280;5912;51.034;6.984;2022-12-05T13:52:29;100371.06;;;1.28;98.50
11712;BME280;5912;51.034;6.984;2022-12-05T13:55:14;100365.09;;;1.10;99.26
11712;BME280;5912;51.034;6.984;2022-12-05T13:57:46;100380.84;;;1.16;99.64
11712;BME280;5912;51.034;6.984;2022-12-05T14:05:36;100378.84;;;1.10;100.00
11712;BME280;5912;51.034;6.984;2022-12-05T14:18:51;100384.16;;;0.91;100.00
11712;BME280;5912;51.034;6.984;2022-12-05T14:21:35;100370.78;;;0.78;100.00
11712;BME280;5912;51.034;6.984;2022-12-05T14:24:09;100383.78;;;0.86;100.00
11712;BME280;5912;51.034;6.984;2022-12-05T14:27:15;100389.94;;;0.85;100.00
11712;BME280;5912;51.034;6.984;2022-12-05T14:30:04;100391.84;;;0.83;100.00
11712;BME280;5912;51.034;6.984;2022-12-05T14:32:38;100364.75;;;0.70;100.00
11712;BME280;5912;51.034;6.984;2022-12-05T14:38:29;100386.97;;;0.80;100.00
11712;BME280;5912;51.034;6.984;2022-12-05T14:40:56;100392.59;;;0.76;100.00
11712;BME280;5912;51.034;6.984;2022-12-05T14:43:36;100384.00;;;0.75;100.00
11712;BME280;5912;51.034;6.984;2022-12-05T14:46:06;100363.16;;;0.59;100.00
11712;BME280;5912;51.034;6.984;2022-12-05T14:48:35;100377.53;;;0.71;100.00
11712;BME280;5912;51.034;6.984;2022-12-05T21:58:45;100516.34;;;-0.50;100.00
11712;BME280;5912;51.034;6.984;2022-12-05T22:01:27;100516.34;;;-0.50;100.00
11712;BME280;5912;51.034;6.984;2022-12-05T22:06:28;100515.38;;;-0.49;100.00
11712;BME280;5912;51.034;6.984;2022-12-05T22:08:57;100512.94;;;-0.51;100.00
11712;BME280;5912;51.034;6.984;2022-12-05T22:11:28;100531.56;;;-0.47;100.00
11712;BME280;5912;51.034;6.984;2022-12-05T22:13:54;100501.69;;;-0.59;100.00
11712;BME280;5912;51.034;6.984;2022-12-05T22:16:22;100520.31;;;-0.46;100.00
11712;BME280;5912;51.034;6.984;2022-12-05T22:18:48;100519.34;;;-0.45;100.00
11712;BME280;5912;51.034;6.984;2022-12-05T22:21:18;100462.81;;;-0.77;100.00
11712;BME280;5912;51.034;6.984;2022-12-05T22:23:44;100490.25;;;-0.57;100.00
11712;BME280;5912;51.034;6.984;2022-12-05T22:26:12;100484.53;;;-0.60;100.00
11712;BME280;5912;51.034;6.984;2022-12-05T22:28:40;100508.06;;;-0.44;100.00
11712;BME280;5912;51.034;6.984;2022-12-05T22:31:08;100464.72;;;-0.69;100.00
11712;BME280;5912;51.034;6.984;2022-12-05T22:33:35;100515.53;;;-0.41;100.00
11712;BME280;5912;51.034;6.984;2022-12-05T22:39:07;100512.94;;;-0.41;100.00
11712;BME280;5912;51.034;6.984;2022-12-05T22:41:32;100517.81;;;-0.38;100.00
11712;BME280;5912;51.034;6.984;2022-12-05T22:43:59;100516.06;;;-0.38;100.00
11712;BME280;5912;51.034;6.984;2022-12-05T22:46:26;100480.63;;;-0.55;100.00
11712;BME280;5912;51.034;6.984;2022-12-05T22:48:53;100510.91;;;-0.38;100.00
11712;BME280;5912;51.034;6.984;2022-12-05T22:51:20;100511.03;;;-0.39;100.00
11712;BME280;5912;51.034;6.984;2022-12-05T22:53:49;100522.06;;;-0.37;100.00
11712;BME280;5912;51.034;6.984;2022-12-05T22:56:17;100508.47;;;-0.39;100.00
11712;BME280;5912;51.034;6.984;2022-12-05T22:58:45;100513.91;;;-0.33;100.00
11712;BME280;5912;51.034;6.984;2022-12-05T23:01:23;100512.28;;;-0.34;100.00
11712;BME280;5912;51.034;6.984;2022-12-05T23:03:57;100517.97;;;-0.30;100.00
11712;BME280;5912;51.034;6.984;2022-12-05T23:06:23;100509.56;;;-0.32;100.00
11712;BME280;5912;51.034;6.984;2022-12-05T23:08:57;100504.41;;;-0.32;100.00
11712;BME280;5912;51.034;6.984;2022-12-05T23:11:24;100507.38;;;-0.27;100.00
11712;BME280;5912;51.034;6.984;2022-12-05T23:13:54;100498.69;;;-0.26;100.00
11712;BME280;5912;51.034;6.984;2022-12-05T23:16:26;100501.94;;;-0.24;100.00
11712;BME280;5912;51.034;6.984;2022-12-05T23:19:00;100493.09;;;-0.22;100.00
11712;BME280;5912;51.034;6.984;2022-12-05T23:21:33;100496.38;;;-0.20;100.00
11712;BME280;5912;51.034;6.984;2022-12-05T23:24:08;100493.78;;;-0.20;100.00
11712;BME280;5912;51.034;6.984;2022-12-05T23:26:42;100459.56;;;-0.41;100.00
11712;BME280;5912;51.034;6.984;2022-12-05T23:29:09;100495.53;;;-0.20;100.00
11712;BME280;5912;51.034;6.984;2022-12-05T23:31:40;100485.91;;;-0.18;100.00
11712;BME280;5912;51.034;6.984;2022-12-05T23:34:08;100486.72;;;-0.18;100.00
11712;BME280;5912;51.034;6.984;2022-12-05T23:36:36;100489.94;;;-0.16;100.00
11712;BME280;5912;51.034;6.984;2022-12-05T23:39:03;100488.88;;;-0.13;100.00
11712;BME280;5912;51.034;6.984;2022-12-05T23:41:33;100475.69;;;-0.10;100.00
11712;BME280;5912;51.034;6.984;2022-12-05T23:43:59;100478.13;;;-0.09;100.00
11712;BME280;5912;51.034;6.984;2022-12-05T23:46:26;100474.59;;;-0.08;100.00
11712;BME280;5912;51.034;6.984;2022-12-05T23:48:52;100446.59;;;-0.22;100.00
11712;BME280;5912;51.034;6.984;2022-12-05T23:51:24;100469.97;;;-0.04;100.00
11712;BME280;5912;51.034;6.984;2022-12-05T23:53:56;100443.75;;;-0.19;100.00
11712;BME280;5912;51.034;6.984;2022-12-05T23:56:28;100472.53;;;-0.04;100.00
11712;BME280;5912;51.034;6.984;2022-12-05T23:58:54;100452.44;;;-0.10;100.00
